sensor_id;sensor_type;location;lat;lon;timestamp;P1;durP1;ratioP1;P2;durP2;ratioP2
74401;SDS011;62837;51.082;13.744;2022-11-20T00:02:27;23.20;;;11.10;;
74401;SDS011;62837;51.082;13.744;2022-11-20T00:04:57;22.20;;;11.90;;
74401;SDS011;62837;51.082;13.744;2022-11-20T00:07:28;23.00;;;10.70;;
74401;SDS011;62837;51.082;13.744;2022-11-20T00:09:59;21.30;;;10.90;;
74401;SDS011;62837;51.082;13.744;2022-11-20T00:12:30;23.80;;;10.80;;
74401;SDS011;62837;51.082;13.744;2022-11-20T00:15:01;22.70;;;12.30;;
74401;SDS011;62837;51.082;13.744;2022-11-20T00:17:32;21.30;;;9.00;;
74401;SDS011;62837;51.082;13.744;2022-11-20T00:20:03;22.30;;;10.70;;
74401;SDS011;62837;51.082;13.744;2022-11-20T00:22:35;23.40;;;11.00;;
74401;SDS011;62837;51.082;13.744;2022-11-20T00:25:07;18.70;;;7.80;;
74401;SDS011;62837;51.082;13.744;2022-11-20T00:27:37;14.10;;;6.70;;
74401;SDS011;62837;51.082;13.744;2022-11-20T00:30:09;17.50;;;7.90;;
74401;SDS011;62837;51.082;13.744;2022-11-20T00:32:42;14.50;;;7.20;;
74401;SDS011;62837;51.082;13.744;2022-11-20T00:35:12;19.20;;;8.10;;
74401;SDS011;62837;51.082;13.744;2022-11-20T00:37:43;13.70;;;6.90;;
74401;SDS011;62837;51.082;13.744;2022-11-20T00:40:14;20.60;;;9.20;;
74401;SDS011;62837;51.082;13.744;2022-11-20T00:42:45;28.00;;;12.30;;
74401;SDS011;62837;51.082;13.744;2022-11-20T00:45:15;22.00;;;11.10;;
74401;SDS011;62837;51.082;13.744;2022-11-20T00:47:46;25.40;;;11.30;;
74401;SDS011;62837;51.082;13.744;2022-11-20T00:50:17;24.40;;;11.00;;
74401;SDS011;62837;51.082;13.744;2022-11-20T00:52:47;19.20;;;7.90;;
74401;SDS011;62837;51.082;13.744;2022-11-20T00:55:18;20.40;;;9.30;;
74401;SDS011;62837;51.082;13.744;2022-11-20T00:57:49;23.90;;;9.50;;
74401;SDS011;62837;51.082;13.744;2022-11-20T01:00:20;18.10;;;9.10;;
74401;SDS011;62837;51.082;13.744;2022-11-20T01:02:50;20.10;;;9.70;;
74401;SDS011;62837;51.082;13.744;2022-11-20T01:05:21;19.70;;;8.90;;
74401;SDS011;62837;51.082;13.744;2022-11-20T01:07:52;18.90;;;8.10;;
74401;SDS011;62837;51.082;13.744;2022-11-20T01:10:22;14.90;;;6.40;;
74401;SDS011;62837;51.082;13.744;2022-11-20T01:12:53;9.20;;;3.60;;
74401;SDS011;62837;51.082;13.744;2022-11-20T01:15:38;12.70;;;6.40;;
74401;SDS011;62837;51.082;13.744;2022-11-20T01:18:09;21.90;;;9.20;;
74401;SDS011;62837;51.082;13.744;2022-11-20T01:20:40;25.50;;;11.90;;
74401;SDS011;62837;51.082;13.744;2022-11-20T01:23:10;25.20;;;11.50;;
74401;SDS011;62837;51.082;13.744;2022-11-20T01:25:41;24.40;;;10.90;;
74401;SDS011;62837;51.082;13.744;2022-11-20T01:28:12;21.10;;;9.70;;
74401;SDS011;62837;51.082;13.744;2022-11-20T01:30:42;22.40;;;10.70;;
74401;SDS011;62837;51.082;13.744;2022-11-20T01:33:13;17.70;;;8.30;;
74401;SDS011;62837;51.082;13.744;2022-11-20T01:35:44;17.50;;;8.10;;
74401;SDS011;62837;51.082;13.744;2022-11-20T01:38:16;10.20;;;4.50;;
74401;SDS011;62837;51.082;13.744;2022-11-20T01:40:54;17.70;;;7.40;;
74401;SDS011;62837;51.082;13.744;2022-11-20T01:43:25;13.00;;;4.70;;
74401;SDS011;62837;51.082;13.744;2022-11-20T01:46:04;18.70;;;7.20;;
74401;SDS011;62837;51.082;13.744;2022-11-20T01:48:46;16.90;;;6.90;;
74401;SDS011;62837;51.082;13.744;2022-11-20T01:51:23;22.20;;;9.50;;
74401;SDS011;62837;51.082;13.744;2022-11-20T01:53:59;21.60;;;10.40;;
74401;SDS011;62837;51.082;13.744;2022-11-20T01:56:35;19.80;;;9.70;;
74401;SDS011;62837;51.082;13.744;2022-11-20T01:59:10;23.60;;;8.80;;
74401;SDS011;62837;51.082;13.744;2022-11-20T02:01:44;13.70;;;5.80;;
74401;SDS011;62837;51.082;13.744;2022-11-20T02:04:15;24.90;;;9.20;;
74401;SDS011;62837;51.082;13.744;2022-11-20T02:06:47;38.30;;;12.60;;
74401;SDS011;62837;51.082;13.744;2022-11-20T02:09:20;40.70;;;14.80;;
74401;SDS011;62837;51.082;13.744;2022-11-20T02:11:51;32.60;;;11.40;;
74401;SDS011;62837;51.082;13.744;2022-11-20T02:14:22;27.50;;;9.80;;
74401;SDS011;62837;51.082;13.744;2022-11-20T02:16:54;20.90;;;8.40;;
74401;SDS011;62837;51.082;13.744;2022-11-20T02:19:26;23.00;;;8.30;;
74401;SDS011;62837;51.082;13.744;2022-11-20T02:22:02;18.30;;;7.90;;
74401;SDS011;62837;51.082;13.744;2022-11-20T02:24:36;19.50;;;6.60;;
74401;SDS011;62837;51.082;13.744;2022-11-20T02:27:09;25.70;;;9.80;;
74401;SDS011;62837;51.082;13.744;2022-11-20T02:29:42;22.80;;;8.40;;
74401;SDS011;62837;51.082;13.744;2022-11-20T02:32:20;21.90;;;10.20;;
74401;SDS011;62837;51.082;13.744;2022-11-20T02:34:53;19.60;;;8.80;;
74401;SDS011;62837;51.082;13.744;2022-11-20T02:37:25;15.90;;;5.30;;
74401;SDS011;62837;51.082;13.744;2022-11-20T02:40:02;22.30;;;9.70;;
74401;SDS011;62837;51.082;13.744;2022-11-20T02:42:34;18.70;;;7.10;;
74401;SDS011;62837;51.082;13.744;2022-11-20T02:45:07;24.10;;;9.00;;
74401;SDS011;62837;51.082;13.744;2022-11-20T02:47:38;10.80;;;4.50;;
74401;SDS011;62837;51.082;13.744;2022-11-20T02:50:09;16.20;;;7.10;;
74401;SDS011;62837;51.082;13.744;2022-11-20T02:52:40;10.80;;;4.90;;
74401;SDS011;62837;51.082;13.744;2022-11-20T02:55:11;19.80;;;9.60;;
74401;SDS011;62837;51.082;13.744;2022-11-20T02:57:42;24.70;;;10.20;;
74401;SDS011;62837;51.082;13.744;2022-11-20T03:02:44;17.10;;;8.60;;
74401;SDS011;62837;51.082;13.744;2022-11-20T03:05:15;19.70;;;8.70;;
74401;SDS011;62837;51.082;13.744;2022-11-20T03:07:46;18.20;;;8.30;;
74401;SDS011;62837;51.082;13.744;2022-11-20T03:10:17;22.20;;;8.50;;
74401;SDS011;62837;51.082;13.744;2022-11-20T03:12:47;18.20;;;8.30;;
74401;SDS011;62837;51.082;13.744;2022-11-20T03:15:24;18.20;;;8.50;;
74401;SDS011;62837;51.082;13.744;2022-11-20T03:17:54;20.20;;;8.40;;
74401;SDS011;62837;51.082;13.744;2022-11-20T03:20:25;16.80;;;7.30;;
74401;SDS011;62837;51.082;13.744;2022-11-20T03:22:56;18.00;;;6.80;;
74401;SDS011;62837;51.082;13.744;2022-11-20T03:25:27;15.30;;;6.30;;
74401;SDS011;62837;51.082;13.744;2022-11-20T03:27:58;19.30;;;7.10;;
74401;SDS011;62837;51.082;13.744;2022-11-20T03:30:29;12.30;;;5.60;;
74401;SDS011;62837;51.082;13.744;2022-11-20T03:32:59;15.10;;;7.40;;
74401;SDS011;62837;51.082;13.744;2022-11-20T03:35:30;11.10;;;5.40;;
74401;SDS011;62837;51.082;13.744;2022-11-20T03:38:01;24.70;;;11.40;;
74401;SDS011;62837;51.082;13.744;2022-11-20T03:40:31;22.20;;;9.40;;
74401;SDS011;62837;51.082;13.744;2022-11-20T03:43:04;22.80;;;9.70;;
74401;SDS011;62837;51.082;13.744;2022-11-20T03:45:35;22.30;;;9.80;;
74401;SDS011;62837;51.082;13.744;2022-11-20T03:48:06;22.20;;;9.80;;
74401;SDS011;62837;51.082;13.744;2022-11-20T03:50:36;23.70;;;9.90;;
74401;SDS011;62837;51.082;13.744;2022-11-20T03:53:07;23.40;;;9.70;;
74401;SDS011;62837;51.082;13.744;2022-11-20T03:55:38;22.70;;;9.50;;
74401;SDS011;62837;51.082;13.744;2022-11-20T03:58:09;17.10;;;7.70;;
74401;SDS011;62837;51.082;13.744;2022-11-20T04:00:41;17.50;;;7.90;;
74401;SDS011;62837;51.082;13.744;2022-11-20T04:03:12;17.20;;;7.60;;
74401;SDS011;62837;51.082;13.744;2022-11-20T04:05:42;16.30;;;8.20;;
74401;SDS011;62837;51.082;13.744;2022-11-20T04:08:13;17.00;;;7.10;;
74401;SDS011;62837;51.082;13.744;2022-11-20T04:10:44;16.30;;;6.80;;
74401;SDS011;62837;51.082;13.744;2022-11-20T04:13:15;19.80;;;6.80;;
74401;SDS011;62837;51.082;13.744;2022-11-20T04:15:46;17.50;;;6.90;;
74401;SDS011;62837;51.082;13.744;2022-11-20T04:18:16;18.50;;;9.30;;
74401;SDS011;62837;51.082;13.744;2022-11-20T04:20:47;27.50;;;11.40;;
74401;SDS011;62837;51.082;13.744;2022-11-20T04:23:18;23.50;;;11.10;;
74401;SDS011;62837;51.082;13.744;2022-11-20T04:26:00;18.50;;;9.20;;
74401;SDS011;62837;51.082;13.744;2022-11-20T04:28:31;16.20;;;8.00;;
74401;SDS011;62837;51.082;13.744;2022-11-20T04:31:03;26.00;;;8.80;;
74401;SDS011;62837;51.082;13.744;2022-11-20T04:33:35;18.80;;;8.00;;
74401;SDS011;62837;51.082;13.744;2022-11-20T04:36:09;18.10;;;7.50;;
74401;SDS011;62837;51.082;13.744;2022-11-20T04:38:42;9.00;;;4.30;;
74401;SDS011;62837;51.082;13.744;2022-11-20T04:41:14;17.80;;;7.40;;
74401;SDS011;62837;51.082;13.744;2022-11-20T04:43:47;15.30;;;5.50;;
74401;SDS011;62837;51.082;13.744;2022-11-20T04:46:19;12.30;;;6.80;;
74401;SDS011;62837;51.082;13.744;2022-11-20T04:48:49;16.90;;;7.00;;
74401;SDS011;62837;51.082;13.744;2022-11-20T04:51:21;14.10;;;6.10;;
74401;SDS011;62837;51.082;13.744;2022-11-20T04:53:52;11.70;;;5.90;;
74401;SDS011;62837;51.082;13.744;2022-11-20T04:56:23;23.30;;;11.20;;
74401;SDS011;62837;51.082;13.744;2022-11-20T04:58:53;24.30;;;11.00;;
74401;SDS011;62837;51.082;13.744;2022-11-20T05:01:24;16.60;;;8.10;;
74401;SDS011;62837;51.082;13.744;2022-11-20T05:03:55;18.90;;;9.20;;
74401;SDS011;62837;51.082;13.744;2022-11-20T05:06:25;20.00;;;8.10;;
74401;SDS011;62837;51.082;13.744;2022-11-20T05:08:56;13.20;;;5.20;;
74401;SDS011;62837;51.082;13.744;2022-11-20T05:11:27;8.10;;;3.70;;
74401;SDS011;62837;51.082;13.744;2022-11-20T05:13:58;4.80;;;2.30;;
74401;SDS011;62837;51.082;13.744;2022-11-20T05:16:29;16.80;;;7.00;;
74401;SDS011;62837;51.082;13.744;2022-11-20T05:19:02;17.40;;;7.50;;
74401;SDS011;62837;51.082;13.744;2022-11-20T05:21:33;15.10;;;6.60;;
74401;SDS011;62837;51.082;13.744;2022-11-20T05:24:04;12.90;;;5.00;;
74401;SDS011;62837;51.082;13.744;2022-11-20T05:26:35;10.60;;;3.60;;
74401;SDS011;62837;51.082;13.744;2022-11-20T05:29:06;27.30;;;11.10;;
74401;SDS011;62837;51.082;13.744;2022-11-20T05:31:38;19.20;;;7.50;;
74401;SDS011;62837;51.082;13.744;2022-11-20T05:34:09;20.70;;;9.10;;
74401;SDS011;62837;51.082;13.744;2022-11-20T05:36:40;18.70;;;8.20;;
74401;SDS011;62837;51.082;13.744;2022-11-20T05:39:10;16.40;;;7.90;;
74401;SDS011;62837;51.082;13.744;2022-11-20T05:41:41;19.10;;;8.50;;
74401;SDS011;62837;51.082;13.744;2022-11-20T05:44:12;8.20;;;3.70;;
74401;SDS011;62837;51.082;13.744;2022-11-20T05:46:43;8.20;;;3.90;;
74401;SDS011;62837;51.082;13.744;2022-11-20T05:49:14;15.70;;;6.30;;
74401;SDS011;62837;51.082;13.744;2022-11-20T05:51:45;15.90;;;6.60;;
74401;SDS011;62837;51.082;13.744;2022-11-20T05:54:16;15.80;;;6.00;;
74401;SDS011;62837;51.082;13.744;2022-11-20T05:56:46;16.80;;;5.60;;
74401;SDS011;62837;51.082;13.744;2022-11-20T05:59:17;13.30;;;6.10;;
74401;SDS011;62837;51.082;13.744;2022-11-20T06:01:48;14.10;;;6.30;;
74401;SDS011;62837;51.082;13.744;2022-11-20T06:04:19;14.40;;;5.20;;
74401;SDS011;62837;51.082;13.744;2022-11-20T06:06:49;29.20;;;12.10;;
74401;SDS011;62837;51.082;13.744;2022-11-20T06:09:20;25.50;;;10.90;;
74401;SDS011;62837;51.082;13.744;2022-11-20T06:11:51;17.80;;;8.20;;
74401;SDS011;62837;51.082;13.744;2022-11-20T06:14:21;20.60;;;9.10;;
74401;SDS011;62837;51.082;13.744;2022-11-20T06:16:52;19.40;;;8.10;;
74401;SDS011;62837;51.082;13.744;2022-11-20T06:19:23;17.40;;;7.90;;
74401;SDS011;62837;51.082;13.744;2022-11-20T06:21:53;19.80;;;8.80;;
74401;SDS011;62837;51.082;13.744;2022-11-20T06:24:24;18.70;;;8.30;;
74401;SDS011;62837;51.082;13.744;2022-11-20T06:26:55;13.20;;;4.90;;
74401;SDS011;62837;51.082;13.744;2022-11-20T06:29:26;28.90;;;10.10;;
74401;SDS011;62837;51.082;13.744;2022-11-20T06:32:01;20.90;;;9.00;;
74401;SDS011;62837;51.082;13.744;2022-11-20T06:34:31;20.00;;;9.30;;
74401;SDS011;62837;51.082;13.744;2022-11-20T06:37:02;18.70;;;8.30;;
74401;SDS011;62837;51.082;13.744;2022-11-20T06:39:33;18.10;;;6.00;;
74401;SDS011;62837;51.082;13.744;2022-11-20T06:42:04;9.00;;;3.60;;
74401;SDS011;62837;51.082;13.744;2022-11-20T06:44:34;19.40;;;8.90;;
74401;SDS011;62837;51.082;13.744;2022-11-20T06:47:05;18.20;;;7.20;;
74401;SDS011;62837;51.082;13.744;2022-11-20T06:49:36;14.80;;;6.30;;
74401;SDS011;62837;51.082;13.744;2022-11-20T06:52:07;15.00;;;5.80;;
74401;SDS011;62837;51.082;13.744;2022-11-20T06:54:37;15.90;;;6.20;;
74401;SDS011;62837;51.082;13.744;2022-11-20T06:57:08;13.10;;;5.60;;
74401;SDS011;62837;51.082;13.744;2022-11-20T06:59:38;12.50;;;5.30;;
74401;SDS011;62837;51.082;13.744;2022-11-20T07:02:10;27.40;;;11.20;;
74401;SDS011;62837;51.082;13.744;2022-11-20T07:04:41;29.50;;;11.70;;
74401;SDS011;62837;51.082;13.744;2022-11-20T07:07:12;22.90;;;10.00;;
74401;SDS011;62837;51.082;13.744;2022-11-20T07:09:43;21.10;;;9.60;;
74401;SDS011;62837;51.082;13.744;2022-11-20T07:12:13;20.20;;;9.50;;
74401;SDS011;62837;51.082;13.744;2022-11-20T07:14:44;22.30;;;10.20;;
74401;SDS011;62837;51.082;13.744;2022-11-20T07:17:15;19.00;;;7.90;;
74401;SDS011;62837;51.082;13.744;2022-11-20T07:19:45;16.60;;;7.60;;
74401;SDS011;62837;51.082;13.744;2022-11-20T07:22:16;20.60;;;9.20;;
74401;SDS011;62837;51.082;13.744;2022-11-20T07:24:49;16.30;;;7.20;;
74401;SDS011;62837;51.082;13.744;2022-11-20T07:27:20;16.20;;;7.60;;
74401;SDS011;62837;51.082;13.744;2022-11-20T07:29:51;16.20;;;6.90;;
74401;SDS011;62837;51.082;13.744;2022-11-20T07:32:22;18.40;;;7.60;;
74401;SDS011;62837;51.082;13.744;2022-11-20T07:34:53;24.50;;;9.50;;
74401;SDS011;62837;51.082;13.744;2022-11-20T07:37:23;25.20;;;10.30;;
74401;SDS011;62837;51.082;13.744;2022-11-20T07:39:54;23.30;;;10.30;;
74401;SDS011;62837;51.082;13.744;2022-11-20T07:42:25;19.90;;;10.20;;
74401;SDS011;62837;51.082;13.744;2022-11-20T07:44:56;20.80;;;9.80;;
74401;SDS011;62837;51.082;13.744;2022-11-20T07:47:27;18.60;;;8.40;;
74401;SDS011;62837;51.082;13.744;2022-11-20T07:49:58;18.70;;;8.60;;
74401;SDS011;62837;51.082;13.744;2022-11-20T07:52:28;21.40;;;10.10;;
74401;SDS011;62837;51.082;13.744;2022-11-20T07:54:59;18.20;;;7.80;;
74401;SDS011;62837;51.082;13.744;2022-11-20T07:57:30;20.00;;;7.90;;
74401;SDS011;62837;51.082;13.744;2022-11-20T08:00:01;19.70;;;9.60;;
74401;SDS011;62837;51.082;13.744;2022-11-20T08:02:52;20.70;;;9.80;;
74401;SDS011;62837;51.082;13.744;2022-11-20T08:05:23;16.20;;;8.30;;
74401;SDS011;62837;51.082;13.744;2022-11-20T08:07:54;20.10;;;8.90;;
74401;SDS011;62837;51.082;13.744;2022-11-20T08:10:24;21.90;;;9.40;;
74401;SDS011;62837;51.082;13.744;2022-11-20T08:12:55;26.30;;;13.80;;
74401;SDS011;62837;51.082;13.744;2022-11-20T08:15:47;21.70;;;11.60;;
74401;SDS011;62837;51.082;13.744;2022-11-20T08:18:19;24.40;;;12.10;;
74401;SDS011;62837;51.082;13.744;2022-11-20T08:23:30;24.40;;;11.80;;
74401;SDS011;62837;51.082;13.744;2022-11-20T08:26:00;24.70;;;11.20;;
74401;SDS011;62837;51.082;13.744;2022-11-20T08:28:31;21.20;;;11.20;;
74401;SDS011;62837;51.082;13.744;2022-11-20T08:31:02;22.20;;;10.50;;
74401;SDS011;62837;51.082;13.744;2022-11-20T08:33:33;20.90;;;11.80;;
74401;SDS011;62837;51.082;13.744;2022-11-20T08:36:05;24.40;;;11.40;;
74401;SDS011;62837;51.082;13.744;2022-11-20T08:38:36;17.20;;;9.90;;
74401;SDS011;62837;51.082;13.744;2022-11-20T08:41:07;18.70;;;9.20;;
74401;SDS011;62837;51.082;13.744;2022-11-20T08:43:55;21.80;;;10.40;;
74401;SDS011;62837;51.082;13.744;2022-11-20T08:46:28;22.00;;;11.30;;
74401;SDS011;62837;51.082;13.744;2022-11-20T08:49:03;8.20;;;3.70;;
74401;SDS011;62837;51.082;13.744;2022-11-20T08:51:34;24.80;;;12.80;;
74401;SDS011;62837;51.082;13.744;2022-11-20T08:54:06;26.70;;;13.10;;
74401;SDS011;62837;51.082;13.744;2022-11-20T08:56:37;23.00;;;11.60;;
74401;SDS011;62837;51.082;13.744;2022-11-20T08:59:08;23.90;;;12.70;;
74401;SDS011;62837;51.082;13.744;2022-11-20T09:01:59;26.80;;;13.30;;
74401;SDS011;62837;51.082;13.744;2022-11-20T09:07:03;24.40;;;12.50;;
74401;SDS011;62837;51.082;13.744;2022-11-20T09:09:33;19.90;;;10.50;;
74401;SDS011;62837;51.082;13.744;2022-11-20T09:12:05;24.00;;;12.10;;
74401;SDS011;62837;51.082;13.744;2022-11-20T09:14:35;22.40;;;13.20;;
74401;SDS011;62837;51.082;13.744;2022-11-20T09:17:06;21.40;;;11.50;;
74401;SDS011;62837;51.082;13.744;2022-11-20T09:19:41;22.60;;;10.90;;
74401;SDS011;62837;51.082;13.744;2022-11-20T09:22:12;25.80;;;13.10;;
74401;SDS011;62837;51.082;13.744;2022-11-20T09:24:44;18.30;;;9.70;;
74401;SDS011;62837;51.082;13.744;2022-11-20T09:27:14;23.30;;;12.00;;
74401;SDS011;62837;51.082;13.744;2022-11-20T09:29:49;24.40;;;12.20;;
74401;SDS011;62837;51.082;13.744;2022-11-20T09:32:19;19.00;;;9.90;;
74401;SDS011;62837;51.082;13.744;2022-11-20T09:34:50;20.00;;;9.90;;
74401;SDS011;62837;51.082;13.744;2022-11-20T09:37:21;21.90;;;11.40;;
74401;SDS011;62837;51.082;13.744;2022-11-20T09:39:52;20.40;;;10.30;;
74401;SDS011;62837;51.082;13.744;2022-11-20T09:42:32;18.30;;;8.70;;
74401;SDS011;62837;51.082;13.744;2022-11-20T09:45:21;18.90;;;10.50;;
74401;SDS011;62837;51.082;13.744;2022-11-20T09:48:01;18.40;;;9.70;;
74401;SDS011;62837;51.082;13.744;2022-11-20T09:53:35;13.10;;;7.50;;
74401;SDS011;62837;51.082;13.744;2022-11-20T09:56:15;20.00;;;10.10;;
74401;SDS011;62837;51.082;13.744;2022-11-20T09:58:50;18.70;;;9.90;;
74401;SDS011;62837;51.082;13.744;2022-11-20T10:01:26;19.10;;;10.70;;
74401;SDS011;62837;51.082;13.744;2022-11-20T10:04:00;19.40;;;10.40;;
74401;SDS011;62837;51.082;13.744;2022-11-20T10:06:42;20.40;;;9.60;;
74401;SDS011;62837;51.082;13.744;2022-11-20T10:09:37;15.50;;;8.10;;
74401;SDS011;62837;51.082;13.744;2022-11-20T10:12:14;17.70;;;8.90;;
74401;SDS011;62837;51.082;13.744;2022-11-20T10:14:58;19.00;;;9.40;;
74401;SDS011;62837;51.082;13.744;2022-11-20T10:17:47;13.80;;;7.40;;
74401;SDS011;62837;51.082;13.744;2022-11-20T10:20:46;11.70;;;7.00;;
74401;SDS011;62837;51.082;13.744;2022-11-20T10:26:21;18.00;;;9.10;;
74401;SDS011;62837;51.082;13.744;2022-11-20T10:31:40;14.50;;;7.20;;
74401;SDS011;62837;51.082;13.744;2022-11-20T10:34:16;13.90;;;8.00;;
74401;SDS011;62837;51.082;13.744;2022-11-20T10:36:52;11.60;;;6.10;;
74401;SDS011;62837;51.082;13.744;2022-11-20T10:39:32;15.50;;;8.70;;
74401;SDS011;62837;51.082;13.744;2022-11-20T10:42:13;14.30;;;7.00;;
74401;SDS011;62837;51.082;13.744;2022-11-20T10:44:55;15.70;;;7.80;;
74401;SDS011;62837;51.082;13.744;2022-11-20T10:47:33;13.30;;;6.90;;
74401;SDS011;62837;51.082;13.744;2022-11-20T10:50:05;12.80;;;7.50;;
74401;SDS011;62837;51.082;13.744;2022-11-20T10:52:51;10.70;;;5.80;;
74401;SDS011;62837;51.082;13.744;2022-11-20T10:55:37;16.40;;;7.30;;
74401;SDS011;62837;51.082;13.744;2022-11-20T10:58:17;14.30;;;8.60;;
74401;SDS011;62837;51.082;13.744;2022-11-20T11:01:04;12.50;;;6.80;;
74401;SDS011;62837;51.082;13.744;2022-11-20T11:03:42;13.70;;;6.40;;
74401;SDS011;62837;51.082;13.744;2022-11-20T11:06:14;10.80;;;5.30;;
74401;SDS011;62837;51.082;13.744;2022-11-20T11:08:53;12.80;;;6.30;;
74401;SDS011;62837;51.082;13.744;2022-11-20T11:11:26;13.00;;;6.80;;
74401;SDS011;62837;51.082;13.744;2022-11-20T11:14:10;12.10;;;5.90;;
74401;SDS011;62837;51.082;13.744;2022-11-20T11:16:50;9.80;;;5.30;;
74401;SDS011;62837;51.082;13.744;2022-11-20T11:19:24;14.50;;;6.90;;
74401;SDS011;62837;51.082;13.744;2022-11-20T11:21:56;13.20;;;7.20;;
74401;SDS011;62837;51.082;13.744;2022-11-20T11:24:29;14.90;;;7.60;;
74401;SDS011;62837;51.082;13.744;2022-11-20T11:27:12;13.50;;;6.60;;
74401;SDS011;62837;51.082;13.744;2022-11-20T11:29:46;11.70;;;5.90;;
74401;SDS011;62837;51.082;13.744;2022-11-20T11:32:17;13.40;;;5.40;;
74401;SDS011;62837;51.082;13.744;2022-11-20T11:34:59;11.10;;;5.60;;
74401;SDS011;62837;51.082;13.744;2022-11-20T11:37:37;9.90;;;5.10;;
74401;SDS011;62837;51.082;13.744;2022-11-20T11:40:11;8.50;;;4.60;;
74401;SDS011;62837;51.082;13.744;2022-11-20T11:42:52;12.80;;;6.10;;
74401;SDS011;62837;51.082;13.744;2022-11-20T11:45:26;9.20;;;4.80;;
74401;SDS011;62837;51.082;13.744;2022-11-20T11:47:58;8.00;;;4.10;;
74401;SDS011;62837;51.082;13.744;2022-11-20T11:50:32;8.30;;;4.20;;
74401;SDS011;62837;51.082;13.744;2022-11-20T11:53:08;7.90;;;4.30;;
74401;SDS011;62837;51.082;13.744;2022-11-20T11:55:43;10.20;;;6.00;;
74401;SDS011;62837;51.082;13.744;2022-11-20T11:58:23;6.90;;;3.60;;
74401;SDS011;62837;51.082;13.744;2022-11-20T12:01:12;4.90;;;2.70;;
74401;SDS011;62837;51.082;13.744;2022-11-20T12:04:00;7.90;;;4.10;;
74401;SDS011;62837;51.082;13.744;2022-11-20T12:06:41;4.00;;;2.40;;
74401;SDS011;62837;51.082;13.744;2022-11-20T12:09:17;5.90;;;2.50;;
74401;SDS011;62837;51.082;13.744;2022-11-20T12:11:54;4.20;;;2.50;;
74401;SDS011;62837;51.082;13.744;2022-11-20T12:14:34;9.50;;;4.60;;
74401;SDS011;62837;51.082;13.744;2022-11-20T12:17:07;7.60;;;3.70;;
74401;SDS011;62837;51.082;13.744;2022-11-20T12:19:42;8.60;;;4.70;;
74401;SDS011;62837;51.082;13.744;2022-11-20T12:22:17;6.50;;;3.50;;
74401;SDS011;62837;51.082;13.744;2022-11-20T12:24:54;11.70;;;5.50;;
74401;SDS011;62837;51.082;13.744;2022-11-20T12:30:46;7.10;;;3.20;;
74401;SDS011;62837;51.082;13.744;2022-11-20T12:36:27;8.10;;;4.50;;
74401;SDS011;62837;51.082;13.744;2022-11-20T12:39:05;6.20;;;3.00;;
74401;SDS011;62837;51.082;13.744;2022-11-20T12:41:54;4.20;;;1.90;;
74401;SDS011;62837;51.082;13.744;2022-11-20T12:45:05;5.10;;;3.00;;
74401;SDS011;62837;51.082;13.744;2022-11-20T12:47:54;4.80;;;2.40;;
74401;SDS011;62837;51.082;13.744;2022-11-20T12:50:34;6.20;;;3.50;;
74401;SDS011;62837;51.082;13.744;2022-11-20T12:53:36;4.20;;;2.40;;
74401;SDS011;62837;51.082;13.744;2022-11-20T12:56:17;6.10;;;3.50;;
74401;SDS011;62837;51.082;13.744;2022-11-20T12:59:02;8.00;;;4.00;;
74401;SDS011;62837;51.082;13.744;2022-11-20T13:01:49;5.80;;;2.70;;
74401;SDS011;62837;51.082;13.744;2022-11-20T13:04:43;4.90;;;2.30;;
74401;SDS011;62837;51.082;13.744;2022-11-20T13:07:27;4.50;;;2.10;;
74401;SDS011;62837;51.082;13.744;2022-11-20T13:09:59;6.50;;;3.60;;
74401;SDS011;62837;51.082;13.744;2022-11-20T13:12:40;9.60;;;5.40;;
74401;SDS011;62837;51.082;13.744;2022-11-20T13:15:30;4.00;;;2.30;;
74401;SDS011;62837;51.082;13.744;2022-11-20T13:18:09;6.70;;;3.50;;
74401;SDS011;62837;51.082;13.744;2022-11-20T13:20:45;12.10;;;5.30;;
74401;SDS011;62837;51.082;13.744;2022-11-20T13:23:28;7.00;;;3.50;;
74401;SDS011;62837;51.082;13.744;2022-11-20T13:26:06;8.80;;;4.40;;
74401;SDS011;62837;51.082;13.744;2022-11-20T13:28:59;10.70;;;5.50;;
74401;SDS011;62837;51.082;13.744;2022-11-20T13:34:05;10.70;;;5.90;;
74401;SDS011;62837;51.082;13.744;2022-11-20T13:36:49;9.10;;;4.50;;
74401;SDS011;62837;51.082;13.744;2022-11-20T13:39:27;10.90;;;5.10;;
74401;SDS011;62837;51.082;13.744;2022-11-20T13:42:00;6.20;;;3.00;;
74401;SDS011;62837;51.082;13.744;2022-11-20T13:44:53;8.20;;;4.20;;
74401;SDS011;62837;51.082;13.744;2022-11-20T13:47:29;9.90;;;5.30;;
74401;SDS011;62837;51.082;13.744;2022-11-20T13:50:00;8.90;;;4.50;;
74401;SDS011;62837;51.082;13.744;2022-11-20T13:52:43;6.30;;;3.60;;
74401;SDS011;62837;51.082;13.744;2022-11-20T13:55:26;9.80;;;4.90;;
74401;SDS011;62837;51.082;13.744;2022-11-20T13:58:15;10.40;;;5.20;;
74401;SDS011;62837;51.082;13.744;2022-11-20T14:01:00;8.20;;;4.60;;
74401;SDS011;62837;51.082;13.744;2022-11-20T14:03:37;8.50;;;4.50;;
74401;SDS011;62837;51.082;13.744;2022-11-20T14:06:31;7.90;;;4.00;;
74401;SDS011;62837;51.082;13.744;2022-11-20T14:09:11;6.40;;;3.30;;
74401;SDS011;62837;51.082;13.744;2022-11-20T14:11:53;7.10;;;4.00;;
74401;SDS011;62837;51.082;13.744;2022-11-20T14:14:24;6.00;;;3.30;;
74401;SDS011;62837;51.082;13.744;2022-11-20T14:17:06;9.70;;;4.60;;
74401;SDS011;62837;51.082;13.744;2022-11-20T14:19:46;7.30;;;4.10;;
74401;SDS011;62837;51.082;13.744;2022-11-20T14:22:20;6.00;;;3.30;;
74401;SDS011;62837;51.082;13.744;2022-11-20T14:25:03;9.90;;;5.60;;
74401;SDS011;62837;51.082;13.744;2022-11-20T14:27:48;9.00;;;3.80;;
74401;SDS011;62837;51.082;13.744;2022-11-20T14:30:23;8.40;;;4.90;;
74401;SDS011;62837;51.082;13.744;2022-11-20T14:32:57;10.80;;;5.90;;
74401;SDS011;62837;51.082;13.744;2022-11-20T14:35:31;10.30;;;6.00;;
74401;SDS011;62837;51.082;13.744;2022-11-20T14:38:07;9.40;;;4.50;;
74401;SDS011;62837;51.082;13.744;2022-11-20T14:40:43;8.90;;;4.10;;
74401;SDS011;62837;51.082;13.744;2022-11-20T14:43:18;7.60;;;3.50;;
74401;SDS011;62837;51.082;13.744;2022-11-20T14:45:54;8.40;;;4.00;;
74401;SDS011;62837;51.082;13.744;2022-11-20T14:48:28;9.20;;;4.60;;
74401;SDS011;62837;51.082;13.744;2022-11-20T14:51:01;11.60;;;5.60;;
74401;SDS011;62837;51.082;13.744;2022-11-20T14:53:32;8.60;;;5.00;;
74401;SDS011;62837;51.082;13.744;2022-11-20T14:56:03;13.00;;;6.70;;
74401;SDS011;62837;51.082;13.744;2022-11-20T14:58:34;11.50;;;7.40;;
74401;SDS011;62837;51.082;13.744;2022-11-20T15:01:05;10.60;;;5.40;;
74401;SDS011;62837;51.082;13.744;2022-11-20T15:03:40;11.40;;;5.70;;
74401;SDS011;62837;51.082;13.744;2022-11-20T15:06:11;12.10;;;6.90;;
74401;SDS011;62837;51.082;13.744;2022-11-20T15:08:51;10.80;;;5.30;;
74401;SDS011;62837;51.082;13.744;2022-11-20T15:11:23;10.50;;;6.40;;
74401;SDS011;62837;51.082;13.744;2022-11-20T15:13:59;12.60;;;5.60;;
74401;SDS011;62837;51.082;13.744;2022-11-20T15:16:36;11.40;;;5.30;;
74401;SDS011;62837;51.082;13.744;2022-11-20T15:19:16;8.80;;;5.00;;
74401;SDS011;62837;51.082;13.744;2022-11-20T15:21:50;8.50;;;5.10;;
74401;SDS011;62837;51.082;13.744;2022-11-20T15:24:26;10.40;;;4.90;;
74401;SDS011;62837;51.082;13.744;2022-11-20T15:27:00;11.20;;;4.90;;
74401;SDS011;62837;51.082;13.744;2022-11-20T15:29:35;11.70;;;6.00;;